sensor_id;sensor_type;location;lat;lon;timestamp;P1;durP1;ratioP1;P2;durP2;ratioP2
21438;SDS011;10880;50.302;18.736;2022-09-20T00:00:50;1.90;;;1.80;;
21438;SDS011;10880;50.302;18.736;2022-09-20T00:03:27;1.90;;;1.80;;
21438;SDS011;10880;50.302;18.736;2022-09-20T00:05:53;1.93;;;1.83;;
21438;SDS011;10880;50.302;18.736;2022-09-20T00:08:19;1.67;;;1.57;;
21438;SDS011;10880;50.302;18.736;2022-09-20T00:10:46;1.80;;;1.70;;
21438;SDS011;10880;50.302;18.736;2022-09-20T00:13:12;1.90;;;1.80;;
21438;SDS011;10880;50.302;18.736;2022-09-20T00:15:43;1.83;;;1.70;;
21438;SDS011;10880;50.302;18.736;2022-09-20T00:18:11;1.80;;;1.70;;
21438;SDS011;10880;50.302;18.736;2022-09-20T00:20:44;1.80;;;1.70;;
21438;SDS011;10880;50.302;18.736;2022-09-20T00:23:12;1.70;;;1.60;;
21438;SDS011;10880;50.302;18.736;2022-09-20T00:25:38;1.60;;;1.50;;
21438;SDS011;10880;50.302;18.736;2022-09-20T00:28:05;1.90;;;1.80;;
21438;SDS011;10880;50.302;18.736;2022-09-20T00:30:32;1.80;;;1.70;;
21438;SDS011;10880;50.302;18.736;2022-09-20T00:32:59;1.53;;;1.50;;
21438;SDS011;10880;50.302;18.736;2022-09-20T00:35:26;1.80;;;1.70;;
21438;SDS011;10880;50.302;18.736;2022-09-20T00:37:54;1.70;;;1.60;;
21438;SDS011;10880;50.302;18.736;2022-09-20T00:40:21;1.80;;;1.70;;
21438;SDS011;10880;50.302;18.736;2022-09-20T00:42:49;1.87;;;1.77;;
21438;SDS011;10880;50.302;18.736;2022-09-20T00:47:51;1.80;;;1.70;;
21438;SDS011;10880;50.302;18.736;2022-09-20T00:50:23;1.67;;;1.57;;
21438;SDS011;10880;50.302;18.736;2022-09-20T00:53:15;1.73;;;1.60;;
21438;SDS011;10880;50.302;18.736;2022-09-20T00:55:46;1.60;;;1.50;;
21438;SDS011;10880;50.302;18.736;2022-09-20T00:58:16;1.80;;;1.70;;
21438;SDS011;10880;50.302;18.736;2022-09-20T01:00:45;1.80;;;1.70;;
21438;SDS011;10880;50.302;18.736;2022-09-20T01:03:13;1.67;;;1.57;;
21438;SDS011;10880;50.302;18.736;2022-09-20T01:05:43;1.90;;;1.80;;
21438;SDS011;10880;50.302;18.736;2022-09-20T01:08:10;1.70;;;1.60;;
21438;SDS011;10880;50.302;18.736;2022-09-20T01:10:37;1.90;;;1.80;;
21438;SDS011;10880;50.302;18.736;2022-09-20T01:13:03;1.80;;;1.70;;
21438;SDS011;10880;50.302;18.736;2022-09-20T01:15:30;1.80;;;1.70;;
21438;SDS011;10880;50.302;18.736;2022-09-20T01:17:58;1.80;;;1.70;;
21438;SDS011;10880;50.302;18.736;2022-09-20T01:20:31;1.70;;;1.60;;
21438;SDS011;10880;50.302;18.736;2022-09-20T01:28:29;1.97;;;1.87;;
21438;SDS011;10880;50.302;18.736;2022-09-20T01:36:15;1.90;;;1.80;;
21438;SDS011;10880;50.302;18.736;2022-09-20T01:39:07;1.70;;;1.60;;
21438;SDS011;10880;50.302;18.736;2022-09-20T01:41:58;1.80;;;1.70;;
21438;SDS011;10880;50.302;18.736;2022-09-20T01:52:49;1.83;;;1.73;;
21438;SDS011;10880;50.302;18.736;2022-09-20T02:15:20;1.87;;;1.77;;
21438;SDS011;10880;50.302;18.736;2022-09-20T02:21:03;1.93;;;1.83;;
21438;SDS011;10880;50.302;18.736;2022-09-20T02:23:55;2.10;;;2.00;;
21438;SDS011;10880;50.302;18.736;2022-09-20T02:35:33;2.10;;;2.00;;
21438;SDS011;10880;50.302;18.736;2022-09-20T02:38:13;1.90;;;1.80;;
21438;SDS011;10880;50.302;18.736;2022-09-20T02:41:10;1.90;;;1.80;;
21438;SDS011;10880;50.302;18.736;2022-09-20T02:49:16;1.90;;;1.80;;
21438;SDS011;10880;50.302;18.736;2022-09-20T02:52:06;1.97;;;1.87;;
21438;SDS011;10880;50.302;18.736;2022-09-20T02:54:57;1.83;;;1.73;;
21438;SDS011;10880;50.302;18.736;2022-09-20T03:00:08;1.67;;;1.57;;
21438;SDS011;10880;50.302;18.736;2022-09-20T03:05:35;1.80;;;1.70;;
21438;SDS011;10880;50.302;18.736;2022-09-20T03:11:18;1.77;;;1.67;;
21438;SDS011;10880;50.302;18.736;2022-09-20T03:19:51;1.87;;;1.77;;
21438;SDS011;10880;50.302;18.736;2022-09-20T03:22:51;1.80;;;1.70;;
21438;SDS011;10880;50.302;18.736;2022-09-20T03:36:08;2.10;;;1.90;;
21438;SDS011;10880;50.302;18.736;2022-09-20T03:41:27;1.90;;;1.80;;
21438;SDS011;10880;50.302;18.736;2022-09-20T03:54:33;2.07;;;1.87;;
21438;SDS011;10880;50.302;18.736;2022-09-20T04:02:57;1.80;;;1.70;;
21438;SDS011;10880;50.302;18.736;2022-09-20T04:05:29;1.70;;;1.60;;
21438;SDS011;10880;50.302;18.736;2022-09-20T04:08:35;2.07;;;1.83;;
21438;SDS011;10880;50.302;18.736;2022-09-20T04:11:34;1.70;;;1.60;;
21438;SDS011;10880;50.302;18.736;2022-09-20T04:14:10;1.83;;;1.73;;
21438;SDS011;10880;50.302;18.736;2022-09-20T04:19:22;2.00;;;1.90;;
21438;SDS011;10880;50.302;18.736;2022-09-20T04:22:09;1.80;;;1.70;;
21438;SDS011;10880;50.302;18.736;2022-09-20T04:27:26;1.90;;;1.80;;
21438;SDS011;10880;50.302;18.736;2022-09-20T04:30:17;2.10;;;2.00;;
21438;SDS011;10880;50.302;18.736;2022-09-20T04:38:12;2.20;;;2.00;;
21438;SDS011;10880;50.302;18.736;2022-09-20T05:00:05;2.40;;;2.20;;
21438;SDS011;10880;50.302;18.736;2022-09-20T05:06:20;2.20;;;2.10;;
21438;SDS011;10880;50.302;18.736;2022-09-20T05:14:59;2.00;;;1.90;;
21438;SDS011;10880;50.302;18.736;2022-09-20T05:32:05;2.30;;;2.10;;
21438;SDS011;10880;50.302;18.736;2022-09-20T05:34:57;2.10;;;2.00;;
21438;SDS011;10880;50.302;18.736;2022-09-20T05:49:10;2.30;;;2.20;;
21438;SDS011;10880;50.302;18.736;2022-09-20T05:52:01;2.23;;;2.13;;
21438;SDS011;10880;50.302;18.736;2022-09-20T05:54:49;2.70;;;2.37;;
21438;SDS011;10880;50.302;18.736;2022-09-20T05:57:38;2.60;;;2.40;;
21438;SDS011;10880;50.302;18.736;2022-09-20T06:00:38;2.57;;;2.37;;
21438;SDS011;10880;50.302;18.736;2022-09-20T06:03:17;2.43;;;2.20;;
21438;SDS011;10880;50.302;18.736;2022-09-20T06:14:18;2.33;;;2.13;;
21438;SDS011;10880;50.302;18.736;2022-09-20T06:16:56;2.60;;;2.40;;
21438;SDS011;10880;50.302;18.736;2022-09-20T06:19:28;2.67;;;2.47;;
21438;SDS011;10880;50.302;18.736;2022-09-20T06:22:13;2.53;;;2.30;;
21438;SDS011;10880;50.302;18.736;2022-09-20T06:24:50;2.03;;;1.93;;
21438;SDS011;10880;50.302;18.736;2022-09-20T06:27:31;2.03;;;1.93;;
21438;SDS011;10880;50.302;18.736;2022-09-20T06:33:31;2.07;;;1.97;;
21438;SDS011;10880;50.302;18.736;2022-09-20T06:42:01;1.93;;;1.83;;
21438;SDS011;10880;50.302;18.736;2022-09-20T06:44:28;1.93;;;1.83;;
21438;SDS011;10880;50.302;18.736;2022-09-20T06:46:55;2.00;;;1.80;;
21438;SDS011;10880;50.302;18.736;2022-09-20T06:49:21;2.00;;;1.90;;
21438;SDS011;10880;50.302;18.736;2022-09-20T06:51:48;2.03;;;1.93;;
21438;SDS011;10880;50.302;18.736;2022-09-20T06:54:16;2.27;;;2.07;;
21438;SDS011;10880;50.302;18.736;2022-09-20T06:56:44;2.13;;;2.03;;
21438;SDS011;10880;50.302;18.736;2022-09-20T06:59:12;2.00;;;1.90;;
21438;SDS011;10880;50.302;18.736;2022-09-20T07:01:40;2.10;;;1.90;;
21438;SDS011;10880;50.302;18.736;2022-09-20T07:04:07;1.97;;;1.87;;
21438;SDS011;10880;50.302;18.736;2022-09-20T07:06:36;1.80;;;1.70;;
21438;SDS011;10880;50.302;18.736;2022-09-20T07:09:03;1.90;;;1.80;;
21438;SDS011;10880;50.302;18.736;2022-09-20T07:11:31;1.83;;;1.73;;
21438;SDS011;10880;50.302;18.736;2022-09-20T07:13:59;1.97;;;1.87;;
21438;SDS011;10880;50.302;18.736;2022-09-20T07:16:26;2.00;;;1.90;;
21438;SDS011;10880;50.302;18.736;2022-09-20T07:18:52;1.70;;;1.60;;
21438;SDS011;10880;50.302;18.736;2022-09-20T07:21:19;2.00;;;1.63;;
21438;SDS011;10880;50.302;18.736;2022-09-20T07:23:46;1.80;;;1.70;;
21438;SDS011;10880;50.302;18.736;2022-09-20T07:28:50;1.90;;;1.80;;
21438;SDS011;10880;50.302;18.736;2022-09-20T07:31:17;2.10;;;2.00;;
21438;SDS011;10880;50.302;18.736;2022-09-20T07:33:45;2.00;;;1.90;;
21438;SDS011;10880;50.302;18.736;2022-09-20T07:36:11;1.90;;;1.80;;
21438;SDS011;10880;50.302;18.736;2022-09-20T07:38:38;1.80;;;1.70;;
21438;SDS011;10880;50.302;18.736;2022-09-20T07:41:06;1.97;;;1.87;;
21438;SDS011;10880;50.302;18.736;2022-09-20T07:43:33;1.70;;;1.60;;
21438;SDS011;10880;50.302;18.736;2022-09-20T07:46:01;1.90;;;1.80;;
21438;SDS011;10880;50.302;18.736;2022-09-20T07:48:28;1.87;;;1.77;;
21438;SDS011;10880;50.302;18.736;2022-09-20T07:51:03;2.00;;;1.90;;
21438;SDS011;10880;50.302;18.736;2022-09-20T07:53:31;1.80;;;1.70;;
21438;SDS011;10880;50.302;18.736;2022-09-20T07:56:02;2.03;;;1.93;;
21438;SDS011;10880;50.302;18.736;2022-09-20T07:58:29;2.20;;;2.10;;
21438;SDS011;10880;50.302;18.736;2022-09-20T08:00:57;2.40;;;2.20;;
21438;SDS011;10880;50.302;18.736;2022-09-20T08:03:25;2.73;;;2.53;;
21438;SDS011;10880;50.302;18.736;2022-09-20T08:06:09;2.83;;;2.60;;
21438;SDS011;10880;50.302;18.736;2022-09-20T08:08:39;2.97;;;2.70;;
21438;SDS011;10880;50.302;18.736;2022-09-20T08:11:07;2.43;;;2.23;;
21438;SDS011;10880;50.302;18.736;2022-09-20T08:13:42;1.93;;;1.83;;
21438;SDS011;10880;50.302;18.736;2022-09-20T08:16:11;2.00;;;1.90;;
21438;SDS011;10880;50.302;18.736;2022-09-20T08:18:39;2.23;;;2.03;;
21438;SDS011;10880;50.302;18.736;2022-09-20T08:21:24;2.60;;;2.40;;
21438;SDS011;10880;50.302;18.736;2022-09-20T08:23:52;2.20;;;2.00;;
21438;SDS011;10880;50.302;18.736;2022-09-20T08:26:19;2.10;;;2.00;;
21438;SDS011;10880;50.302;18.736;2022-09-20T08:28:58;2.10;;;2.00;;
21438;SDS011;10880;50.302;18.736;2022-09-20T08:31:26;2.77;;;2.50;;
21438;SDS011;10880;50.302;18.736;2022-09-20T08:33:59;2.20;;;2.10;;
21438;SDS011;10880;50.302;18.736;2022-09-20T08:36:30;2.10;;;2.00;;
21438;SDS011;10880;50.302;18.736;2022-09-20T08:38:58;2.03;;;1.93;;
21438;SDS011;10880;50.302;18.736;2022-09-20T08:41:31;1.87;;;1.77;;
21438;SDS011;10880;50.302;18.736;2022-09-20T08:44:46;1.63;;;1.53;;
21438;SDS011;10880;50.302;18.736;2022-09-20T08:47:22;1.60;;;1.50;;
21438;SDS011;10880;50.302;18.736;2022-09-20T08:49:53;1.80;;;1.70;;
21438;SDS011;10880;50.302;18.736;2022-09-20T08:52:31;1.70;;;1.60;;
21438;SDS011;10880;50.302;18.736;2022-09-20T08:55:01;1.70;;;1.60;;
21438;SDS011;10880;50.302;18.736;2022-09-20T08:57:30;1.53;;;1.43;;
21438;SDS011;10880;50.302;18.736;2022-09-20T08:59:58;1.60;;;1.50;;
21438;SDS011;10880;50.302;18.736;2022-09-20T09:02:28;1.60;;;1.50;;
21438;SDS011;10880;50.302;18.736;2022-09-20T09:04:56;1.40;;;1.40;;
21438;SDS011;10880;50.302;18.736;2022-09-20T09:07:23;2.23;;;1.70;;
21438;SDS011;10880;50.302;18.736;2022-09-20T09:09:53;1.43;;;1.43;;
21438;SDS011;10880;50.302;18.736;2022-09-20T09:12:22;1.70;;;1.60;;
21438;SDS011;10880;50.302;18.736;2022-09-20T09:14:56;1.60;;;1.50;;
21438;SDS011;10880;50.302;18.736;2022-09-20T09:17:42;1.30;;;1.30;;
21438;SDS011;10880;50.302;18.736;2022-09-20T09:20:16;1.70;;;1.60;;
21438;SDS011;10880;50.302;18.736;2022-09-20T09:22:56;1.30;;;1.30;;
21438;SDS011;10880;50.302;18.736;2022-09-20T09:25:29;1.40;;;1.40;;
21438;SDS011;10880;50.302;18.736;2022-09-20T09:28:00;1.30;;;1.30;;
21438;SDS011;10880;50.302;18.736;2022-09-20T09:30:34;1.40;;;1.40;;
21438;SDS011;10880;50.302;18.736;2022-09-20T09:36:03;1.50;;;1.50;;
21438;SDS011;10880;50.302;18.736;2022-09-20T09:38:40;1.47;;;1.40;;
21438;SDS011;10880;50.302;18.736;2022-09-20T09:41:30;1.50;;;1.40;;
21438;SDS011;10880;50.302;18.736;2022-09-20T09:46:32;1.30;;;1.30;;
21438;SDS011;10880;50.302;18.736;2022-09-20T09:49:05;1.30;;;1.30;;
21438;SDS011;10880;50.302;18.736;2022-09-20T09:51:37;1.53;;;1.43;;
21438;SDS011;10880;50.302;18.736;2022-09-20T09:54:08;1.30;;;1.30;;
21438;SDS011;10880;50.302;18.736;2022-09-20T09:59:47;1.20;;;1.20;;
21438;SDS011;10880;50.302;18.736;2022-09-20T10:02:55;1.30;;;1.30;;
21438;SDS011;10880;50.302;18.736;2022-09-20T10:05:31;1.60;;;1.50;;
21438;SDS011;10880;50.302;18.736;2022-09-20T10:10:57;1.47;;;1.43;;
21438;SDS011;10880;50.302;18.736;2022-09-20T10:13:41;1.50;;;1.50;;
21438;SDS011;10880;50.302;18.736;2022-09-20T10:16:59;1.30;;;1.30;;
21438;SDS011;10880;50.302;18.736;2022-09-20T10:19:42;1.60;;;1.50;;
21438;SDS011;10880;50.302;18.736;2022-09-20T10:27:42;1.53;;;1.43;;
21438;SDS011;10880;50.302;18.736;2022-09-20T10:30:22;1.40;;;1.40;;
21438;SDS011;10880;50.302;18.736;2022-09-20T10:33:08;1.60;;;1.50;;
21438;SDS011;10880;50.302;18.736;2022-09-20T10:38:53;1.60;;;1.50;;
21438;SDS011;10880;50.302;18.736;2022-09-20T10:44:42;1.40;;;1.40;;
21438;SDS011;10880;50.302;18.736;2022-09-20T10:47:34;1.40;;;1.40;;
21438;SDS011;10880;50.302;18.736;2022-09-20T10:53:40;1.70;;;1.60;;
21438;SDS011;10880;50.302;18.736;2022-09-20T10:56:45;1.83;;;1.73;;
21438;SDS011;10880;50.302;18.736;2022-09-20T11:05:04;1.90;;;1.80;;
21438;SDS011;10880;50.302;18.736;2022-09-20T11:08:05;1.67;;;1.57;;
21438;SDS011;10880;50.302;18.736;2022-09-20T11:10:49;1.60;;;1.50;;
21438;SDS011;10880;50.302;18.736;2022-09-20T11:21:10;1.60;;;1.50;;
21438;SDS011;10880;50.302;18.736;2022-09-20T11:26:36;1.40;;;1.40;;
21438;SDS011;10880;50.302;18.736;2022-09-20T11:29:21;1.43;;;1.43;;
21438;SDS011;10880;50.302;18.736;2022-09-20T11:32:25;1.60;;;1.50;;
21438;SDS011;10880;50.302;18.736;2022-09-20T11:37:38;1.30;;;1.30;;
21438;SDS011;10880;50.302;18.736;2022-09-20T11:40:21;1.33;;;1.33;;
21438;SDS011;10880;50.302;18.736;2022-09-20T11:42:54;1.37;;;1.37;;
21438;SDS011;10880;50.302;18.736;2022-09-20T11:45:25;1.40;;;1.40;;
21438;SDS011;10880;50.302;18.736;2022-09-20T11:48:01;1.40;;;1.40;;
21438;SDS011;10880;50.302;18.736;2022-09-20T11:56:17;1.40;;;1.40;;
21438;SDS011;10880;50.302;18.736;2022-09-20T11:58:53;1.30;;;1.30;;
21438;SDS011;10880;50.302;18.736;2022-09-20T12:04:02;1.30;;;1.30;;
21438;SDS011;10880;50.302;18.736;2022-09-20T12:06:58;1.20;;;1.20;;
21438;SDS011;10880;50.302;18.736;2022-09-20T12:09:43;1.30;;;1.30;;
21438;SDS011;10880;50.302;18.736;2022-09-20T12:12:27;1.40;;;1.40;;
21438;SDS011;10880;50.302;18.736;2022-09-20T12:15:00;1.50;;;1.40;;
21438;SDS011;10880;50.302;18.736;2022-09-20T12:26:02;1.30;;;1.30;;
21438;SDS011;10880;50.302;18.736;2022-09-20T12:28:37;1.30;;;1.30;;
21438;SDS011;10880;50.302;18.736;2022-09-20T12:36:27;1.40;;;1.40;;
21438;SDS011;10880;50.302;18.736;2022-09-20T12:39:37;1.30;;;1.30;;
21438;SDS011;10880;50.302;18.736;2022-09-20T12:44:39;1.47;;;1.47;;
21438;SDS011;10880;50.302;18.736;2022-09-20T12:55:27;1.57;;;1.57;;
21438;SDS011;10880;50.302;18.736;2022-09-20T12:58:32;1.47;;;1.43;;
21438;SDS011;10880;50.302;18.736;2022-09-20T13:11:40;1.33;;;1.33;;
21438;SDS011;10880;50.302;18.736;2022-09-20T13:21:55;1.40;;;1.30;;
21438;SDS011;10880;50.302;18.736;2022-09-20T13:24:32;1.20;;;1.20;;
21438;SDS011;10880;50.302;18.736;2022-09-20T13:27:08;1.30;;;1.30;;
21438;SDS011;10880;50.302;18.736;2022-09-20T13:29:55;1.33;;;1.33;;
21438;SDS011;10880;50.302;18.736;2022-09-20T13:32:34;1.30;;;1.30;;
21438;SDS011;10880;50.302;18.736;2022-09-20T13:35:07;1.43;;;1.40;;
21438;SDS011;10880;50.302;18.736;2022-09-20T13:37:50;1.30;;;1.30;;
21438;SDS011;10880;50.302;18.736;2022-09-20T13:42:51;2.07;;;1.50;;
21438;SDS011;10880;50.302;18.736;2022-09-20T13:45:19;1.30;;;1.30;;
21438;SDS011;10880;50.302;18.736;2022-09-20T13:47:48;1.40;;;1.40;;
21438;SDS011;10880;50.302;18.736;2022-09-20T13:52:49;1.40;;;1.30;;
21438;SDS011;10880;50.302;18.736;2022-09-20T13:57:53;1.27;;;1.27;;
21438;SDS011;10880;50.302;18.736;2022-09-20T14:00:22;1.40;;;1.40;;
21438;SDS011;10880;50.302;18.736;2022-09-20T14:02:52;1.30;;;1.20;;
21438;SDS011;10880;50.302;18.736;2022-09-20T14:05:20;1.30;;;1.30;;
21438;SDS011;10880;50.302;18.736;2022-09-20T14:07:51;1.30;;;1.30;;
21438;SDS011;10880;50.302;18.736;2022-09-20T14:12:52;1.20;;;1.20;;
21438;SDS011;10880;50.302;18.736;2022-09-20T14:15:20;1.60;;;1.50;;
21438;SDS011;10880;50.302;18.736;2022-09-20T14:17:47;1.30;;;1.30;;
21438;SDS011;10880;50.302;18.736;2022-09-20T14:20:16;1.30;;;1.30;;
21438;SDS011;10880;50.302;18.736;2022-09-20T14:22:43;1.23;;;1.23;;
21438;SDS011;10880;50.302;18.736;2022-09-20T14:27:39;1.30;;;1.30;;
21438;SDS011;10880;50.302;18.736;2022-09-20T14:30:26;1.60;;;1.50;;
21438;SDS011;10880;50.302;18.736;2022-09-20T14:32:55;1.60;;;1.50;;
21438;SDS011;10880;50.302;18.736;2022-09-20T14:35:23;1.50;;;1.40;;
21438;SDS011;10880;50.302;18.736;2022-09-20T14:37:55;1.70;;;1.60;;
21438;SDS011;10880;50.302;18.736;2022-09-20T14:42:53;1.47;;;1.40;;
21438;SDS011;10880;50.302;18.736;2022-09-20T14:48:05;1.47;;;1.37;;
21438;SDS011;10880;50.302;18.736;2022-09-20T14:53:46;1.30;;;1.30;;
21438;SDS011;10880;50.302;18.736;2022-09-20T14:56:34;1.57;;;1.40;;
21438;SDS011;10880;50.302;18.736;2022-09-20T14:59:17;1.40;;;1.40;;
21438;SDS011;10880;50.302;18.736;2022-09-20T15:01:45;1.20;;;1.20;;
21438;SDS011;10880;50.302;18.736;2022-09-20T15:04:22;1.30;;;1.30;;
21438;SDS011;10880;50.302;18.736;2022-09-20T15:06:50;1.40;;;1.30;;
21438;SDS011;10880;50.302;18.736;2022-09-20T15:09:18;1.30;;;1.30;;
21438;SDS011;10880;50.302;18.736;2022-09-20T15:11:51;1.70;;;1.60;;
21438;SDS011;10880;50.302;18.736;2022-09-20T15:14:35;1.50;;;1.40;;
21438;SDS011;10880;50.302;18.736;2022-09-20T15:17:02;1.40;;;1.40;;
21438;SDS011;10880;50.302;18.736;2022-09-20T15:19:29;1.37;;;1.33;;
21438;SDS011;10880;50.302;18.736;2022-09-20T15:21:56;1.50;;;1.40;;
21438;SDS011;10880;50.302;18.736;2022-09-20T15:24:22;1.60;;;1.50;;
21438;SDS011;10880;50.302;18.736;2022-09-20T15:26:49;1.50;;;1.40;;
21438;SDS011;10880;50.302;18.736;2022-09-20T15:29:15;1.57;;;1.47;;
21438;SDS011;10880;50.302;18.736;2022-09-20T15:31:43;1.47;;;1.47;;
21438;SDS011;10880;50.302;18.736;2022-09-20T15:34:12;1.47;;;1.40;;
21438;SDS011;10880;50.302;18.736;2022-09-20T15:36:39;1.70;;;1.60;;
21438;SDS011;10880;50.302;18.736;2022-09-20T15:39:06;1.60;;;1.50;;
21438;SDS011;10880;50.302;18.736;2022-09-20T15:41:33;1.50;;;1.40;;
21438;SDS011;10880;50.302;18.736;2022-09-20T15:44:01;1.80;;;1.70;;
21438;SDS011;10880;50.302;18.736;2022-09-20T15:46:31;2.47;;;1.70;;
21438;SDS011;10880;50.302;18.736;2022-09-20T15:48:59;1.60;;;1.50;;
21438;SDS011;10880;50.302;18.736;2022-09-20T15:51:27;1.90;;;1.80;;
21438;SDS011;10880;50.302;18.736;2022-09-20T15:53:56;1.60;;;1.50;;
21438;SDS011;10880;50.302;18.736;2022-09-20T15:56:26;1.57;;;1.50;;
21438;SDS011;10880;50.302;18.736;2022-09-20T15:58:59;1.60;;;1.50;;
21438;SDS011;10880;50.302;18.736;2022-09-20T16:01:31;1.60;;;1.50;;
21438;SDS011;10880;50.302;18.736;2022-09-20T16:04:03;1.70;;;1.60;;
21438;SDS011;10880;50.302;18.736;2022-09-20T16:06:34;1.53;;;1.43;;
21438;SDS011;10880;50.302;18.736;2022-09-20T16:09:02;1.60;;;1.50;;
21438;SDS011;10880;50.302;18.736;2022-09-20T16:11:31;1.53;;;1.43;;
21438;SDS011;10880;50.302;18.736;2022-09-20T16:13:58;1.60;;;1.50;;
21438;SDS011;10880;50.302;18.736;2022-09-20T16:16:27;1.70;;;1.60;;
21438;SDS011;10880;50.302;18.736;2022-09-20T16:18:55;2.80;;;2.50;;
21438;SDS011;10880;50.302;18.736;2022-09-20T16:21:40;3.27;;;2.90;;
21438;SDS011;10880;50.302;18.736;2022-09-20T16:24:08;2.80;;;2.60;;
21438;SDS011;10880;50.302;18.736;2022-09-20T16:26:37;3.03;;;2.60;;
21438;SDS011;10880;50.302;18.736;2022-09-20T16:29:04;2.30;;;2.10;;
21438;SDS011;10880;50.302;18.736;2022-09-20T16:36:37;1.83;;;1.73;;
21438;SDS011;10880;50.302;18.736;2022-09-20T16:39:06;1.87;;;1.77;;
21438;SDS011;10880;50.302;18.736;2022-09-20T16:41:32;2.00;;;1.90;;
21438;SDS011;10880;50.302;18.736;2022-09-20T16:44:05;1.83;;;1.73;;
21438;SDS011;10880;50.302;18.736;2022-09-20T16:46:57;1.60;;;1.50;;
21438;SDS011;10880;50.302;18.736;2022-09-20T16:49:23;1.70;;;1.60;;
21438;SDS011;10880;50.302;18.736;2022-09-20T16:51:52;1.70;;;1.60;;
21438;SDS011;10880;50.302;18.736;2022-09-20T16:54:19;1.70;;;1.60;;
21438;SDS011;10880;50.302;18.736;2022-09-20T16:56:46;1.73;;;1.63;;
21438;SDS011;10880;50.302;18.736;2022-09-20T16:59:16;2.03;;;1.60;;
21438;SDS011;10880;50.302;18.736;2022-09-20T17:01:45;1.63;;;1.53;;
21438;SDS011;10880;50.302;18.736;2022-09-20T17:04:13;2.07;;;1.90;;
21438;SDS011;10880;50.302;18.736;2022-09-20T17:06:42;1.83;;;1.73;;
21438;SDS011;10880;50.302;18.736;2022-09-20T17:09:10;2.00;;;1.90;;
21438;SDS011;10880;50.302;18.736;2022-09-20T17:11:39;1.97;;;1.87;;
21438;SDS011;10880;50.302;18.736;2022-09-20T17:14:10;1.80;;;1.70;;
21438;SDS011;10880;50.302;18.736;2022-09-20T17:16:38;2.20;;;1.90;;
21438;SDS011;10880;50.302;18.736;2022-09-20T17:19:06;2.00;;;1.90;;
21438;SDS011;10880;50.302;18.736;2022-09-20T17:21:38;2.20;;;2.00;;
21438;SDS011;10880;50.302;18.736;2022-09-20T17:24:08;2.10;;;2.00;;
21438;SDS011;10880;50.302;18.736;2022-09-20T17:26:35;2.03;;;1.90;;
21438;SDS011;10880;50.302;18.736;2022-09-20T17:29:05;2.27;;;2.07;;
21438;SDS011;10880;50.302;18.736;2022-09-20T17:31:39;2.40;;;2.20;;
21438;SDS011;10880;50.302;18.736;2022-09-20T17:34:08;2.60;;;2.40;;
21438;SDS011;10880;50.302;18.736;2022-09-20T17:36:37;2.60;;;2.37;;
21438;SDS011;10880;50.302;18.736;2022-09-20T17:39:05;3.40;;;2.70;;
21438;SDS011;10880;50.302;18.736;2022-09-20T17:41:35;4.00;;;3.37;;
21438;SDS011;10880;50.302;18.736;2022-09-20T17:44:03;3.57;;;3.20;;
21438;SDS011;10880;50.302;18.736;2022-09-20T17:46:34;4.03;;;3.33;;
21438;SDS011;10880;50.302;18.736;2022-09-20T17:49:03;3.40;;;2.90;;
21438;SDS011;10880;50.302;18.736;2022-09-20T17:51:32;2.70;;;2.50;;
21438;SDS011;10880;50.302;18.736;2022-09-20T17:54:03;3.20;;;2.60;;
21438;SDS011;10880;50.302;18.736;2022-09-20T17:56:30;2.63;;;2.23;;
21438;SDS011;10880;50.302;18.736;2022-09-20T17:58:57;2.60;;;2.40;;
21438;SDS011;10880;50.302;18.736;2022-09-20T18:01:25;2.43;;;2.23;;
21438;SDS011;10880;50.302;18.736;2022-09-20T18:03:53;2.33;;;2.10;;
21438;SDS011;10880;50.302;18.736;2022-09-20T18:06:22;2.70;;;2.40;;
21438;SDS011;10880;50.302;18.736;2022-09-20T18:08:55;3.27;;;2.60;;
21438;SDS011;10880;50.302;18.736;2022-09-20T18:11:30;2.73;;;2.40;;
21438;SDS011;10880;50.302;18.736;2022-09-20T18:14:00;3.20;;;2.63;;
21438;SDS011;10880;50.302;18.736;2022-09-20T18:16:28;3.67;;;2.80;;
21438;SDS011;10880;50.302;18.736;2022-09-20T18:18:55;3.63;;;3.00;;
21438;SDS011;10880;50.302;18.736;2022-09-20T18:21:24;4.03;;;3.00;;
21438;SDS011;10880;50.302;18.736;2022-09-20T18:23:52;3.07;;;2.60;;
21438;SDS011;10880;50.302;18.736;2022-09-20T18:26:24;4.57;;;2.90;;
21438;SDS011;10880;50.302;18.736;2022-09-20T18:31:29;3.40;;;2.53;;
21438;SDS011;10880;50.302;18.736;2022-09-20T18:34:18;2.83;;;2.50;;
21438;SDS011;10880;50.302;18.736;2022-09-20T18:36:50;4.80;;;3.47;;
21438;SDS011;10880;50.302;18.736;2022-09-20T18:39:21;6.90;;;4.50;;
21438;SDS011;10880;50.302;18.736;2022-09-20T18:41:49;8.63;;;5.30;;
21438;SDS011;10880;50.302;18.736;2022-09-20T18:44:17;9.03;;;5.30;;
21438;SDS011;10880;50.302;18.736;2022-09-20T18:46:45;6.17;;;4.20;;
21438;SDS011;10880;50.302;18.736;2022-09-20T18:49:12;4.33;;;3.30;;
21438;SDS011;10880;50.302;18.736;2022-09-20T18:51:41;4.00;;;3.03;;
21438;SDS011;10880;50.302;18.736;2022-09-20T18:54:08;3.43;;;2.90;;
21438;SDS011;10880;50.302;18.736;2022-09-20T18:56:39;3.63;;;3.10;;
21438;SDS011;10880;50.302;18.736;2022-09-20T18:59:11;3.43;;;3.03;;
21438;SDS011;10880;50.302;18.736;2022-09-20T19:09:47;3.10;;;2.80;;
21438;SDS011;10880;50.302;18.736;2022-09-20T19:20:47;2.43;;;2.23;;
21438;SDS011;10880;50.302;18.736;2022-09-20T19:28:49;2.60;;;2.40;;
21438;SDS011;10880;50.302;18.736;2022-09-20T19:31:20;2.60;;;2.40;;
21438;SDS011;10880;50.302;18.736;2022-09-20T19:33:49;3.73;;;2.43;;
21438;SDS011;10880;50.302;18.736;2022-09-20T19:36:22;2.60;;;2.40;;
21438;SDS011;10880;50.302;18.736;2022-09-20T19:45:17;2.87;;;2.57;;
21438;SDS011;10880;50.302;18.736;2022-09-20T19:48:34;3.17;;;2.70;;
21438;SDS011;10880;50.302;18.736;2022-09-20T19:50:41;2.97;;;2.67;;
21438;SDS011;10880;50.302;18.736;2022-09-20T19:53:17;4.77;;;2.83;;
21438;SDS011;10880;50.302;18.736;2022-09-20T19:55:48;3.30;;;3.00;;
21438;SDS011;10880;50.302;18.736;2022-09-20T19:58:25;3.20;;;2.70;;
21438;SDS011;10880;50.302;18.736;2022-09-20T20:00:52;3.30;;;2.90;;
21438;SDS011;10880;50.302;18.736;2022-09-20T20:03:19;3.10;;;2.53;;
21438;SDS011;10880;50.302;18.736;2022-09-20T20:05:53;3.00;;;2.70;;
21438;SDS011;10880;50.302;18.736;2022-09-20T20:13:52;2.73;;;2.53;;
21438;SDS011;10880;50.302;18.736;2022-09-20T20:22:10;3.30;;;2.80;;
21438;SDS011;10880;50.302;18.736;2022-09-20T20:24:49;3.00;;;2.70;;
21438;SDS011;10880;50.302;18.736;2022-09-20T20:27:18;3.13;;;2.80;;
21438;SDS011;10880;50.302;18.736;2022-09-20T20:29:45;3.10;;;2.80;;
21438;SDS011;10880;50.302;18.736;2022-09-20T20:32:12;3.20;;;2.80;;
21438;SDS011;10880;50.302;18.736;2022-09-20T20:34:39;3.07;;;2.80;;
21438;SDS011;10880;50.302;18.736;2022-09-20T20:37:07;2.93;;;2.63;;
21438;SDS011;10880;50.302;18.736;2022-09-20T20:39:34;2.70;;;2.50;;
21438;SDS011;10880;50.302;18.736;2022-09-20T20:42:01;3.27;;;2.73;;
21438;SDS011;10880;50.302;18.736;2022-09-20T20:44:31;3.40;;;2.63;;
21438;SDS011;10880;50.302;18.736;2022-09-20T20:47:02;3.03;;;2.50;;
21438;SDS011;10880;50.302;18.736;2022-09-20T20:49:33;2.53;;;2.33;;
21438;SDS011;10880;50.302;18.736;2022-09-20T20:52:01;2.50;;;2.30;;
21438;SDS011;10880;50.302;18.736;2022-09-20T20:54:30;2.60;;;2.40;;
21438;SDS011;10880;50.302;18.736;2022-09-20T20:56:57;2.70;;;2.50;;
21438;SDS011;10880;50.302;18.736;2022-09-20T20:59:23;2.87;;;2.67;;
21438;SDS011;10880;50.302;18.736;2022-09-20T21:01:50;2.77;;;2.57;;
21438;SDS011;10880;50.302;18.736;2022-09-20T21:04:16;2.57;;;2.37;;